Time;durP1;ratioP1;P1;durP2;ratioP2;P2;SDS_P1;SDS_P2;PMS_P1;PMS_P2;Temp;Humidity;BMP_temperature;BMP_pressure;BME280_temperature;BME280_humidity;BME280_pressure;Samples;Min_cycle;Max_cycle;Signal;HPM_P1;HPM_P2
2022/07/02 00:00:54;;;;;;;0.90;0.90;;;;;;;;;;4988327;28;20038;-64
2022/07/02 00:03:39;;;;;;;0.98;0.98;;;;;;;;;;4990642;28;20030;-63
2022/07/02 00:06:06;;;;;;;1.10;1.10;;;;;;;;;;4988356;28;20034;-63
2022/07/02 00:08:31;;;;;;;0.70;0.70;;;;;;;;;;4987536;28;20062;-63
2022/07/02 00:10:57;;;;;;;0.98;0.98;;;;;;;;;;4988090;28;20081;-64
2022/07/02 00:13:23;;;;;;;0.82;0.82;;;;;;;;;;4989372;28;20037;-64
2022/07/02 00:15:49;;;;;;;1.05;1.05;;;;;;;;;;4986128;28;20041;-63
2022/07/02 00:18:15;;;;;;;1.10;1.10;;;;;;;;;;4989220;28;20227;-63
2022/07/02 00:20:43;;;;;;;1.20;1.20;;;;;;;;;;4989449;28;20459;-64
2022/07/02 00:23:09;;;;;;;1.20;1.10;;;;;;;;;;4989104;28;20034;-63
2022/07/02 00:25:41;;;;;;;1.70;1.00;;;;;;;;;;4987996;28;20532;-63
2022/07/02 00:28:10;;;;;;;0.95;0.88;;;;;;;;;;4985965;28;20124;-64
2022/07/02 00:30:37;;;;;;;1.48;1.08;;;;;;;;;;4986577;28;20893;-64
2022/07/02 00:33:02;;;;;;;1.15;1.15;;;;;;;;;;4989226;28;20113;-63
2022/07/02 00:35:29;;;;;;;1.35;1.30;;;;;;;;;;4987813;28;20491;-64
2022/07/02 00:37:55;;;;;;;1.10;1.10;;;;;;;;;;4989172;28;20045;-64
2022/07/02 00:40:20;;;;;;;2.08;1.30;;;;;;;;;;4988526;28;20103;-63
2022/07/02 00:42:46;;;;;;;1.20;1.20;;;;;;;;;;4988511;28;20033;-63
2022/07/02 00:45:12;;;;;;;1.15;1.15;;;;;;;;;;4987565;28;20078;-64
2022/07/02 00:47:38;;;;;;;1.10;0.98;;;;;;;;;;4987141;28;20035;-63
2022/07/02 00:50:04;;;;;;;1.05;1.05;;;;;;;;;;4989383;28;20030;-63
2022/07/02 00:52:30;;;;;;;1.10;1.10;;;;;;;;;;4989018;28;20543;-64
2022/07/02 00:54:55;;;;;;;1.40;1.30;;;;;;;;;;4988520;28;20081;-63
2022/07/02 00:57:20;;;;;;;1.63;1.52;;;;;;;;;;4987455;28;20087;-64
2022/07/02 00:59:45;;;;;;;1.30;1.20;;;;;;;;;;4989081;28;20066;-62
2022/07/02 01:02:11;;;;;;;1.85;1.45;;;;;;;;;;4988299;28;20018;-64
2022/07/02 01:04:36;;;;;;;2.53;1.30;;;;;;;;;;4987412;28;20041;-64
2022/07/02 01:07:06;;;;;;;1.25;1.25;;;;;;;;;;4986718;28;20046;-63
2022/07/02 01:12:21;;;;;;;1.83;1.73;;;;;;;;;;4988165;28;20113;-63
2022/07/02 01:14:46;;;;;;;1.30;1.30;;;;;;;;;;4987583;28;20061;-63
2022/07/02 01:17:12;;;;;;;1.40;1.30;;;;;;;;;;4989187;28;20129;-64
2022/07/02 01:19:38;;;;;;;1.60;1.48;;;;;;;;;;4989246;28;20473;-63
2022/07/02 01:22:06;;;;;;;2.05;1.10;;;;;;;;;;4987774;28;20026;-63
2022/07/02 01:24:32;;;;;;;1.17;1.17;;;;;;;;;;4986168;28;20161;-63
2022/07/02 01:26:57;;;;;;;1.20;1.10;;;;;;;;;;4986768;28;20054;-63
2022/07/02 01:29:22;;;;;;;1.67;1.58;;;;;;;;;;4985901;28;20149;-65
2022/07/02 01:31:47;;;;;;;1.25;1.25;;;;;;;;;;4988626;28;20042;-64
2022/07/02 01:34:12;;;;;;;1.20;1.20;;;;;;;;;;4986852;28;20461;-63
2022/07/02 01:36:38;;;;;;;1.27;1.27;;;;;;;;;;4986501;28;20465;-64
2022/07/02 01:39:03;;;;;;;1.25;1.15;;;;;;;;;;4986714;28;20551;-63
2022/07/02 01:41:40;;;;;;;1.27;1.27;;;;;;;;;;4987732;28;20030;-63
2022/07/02 01:44:06;;;;;;;1.90;1.80;;;;;;;;;;4987877;28;20548;-63
2022/07/02 01:46:31;;;;;;;1.55;1.45;;;;;;;;;;4985465;28;20041;-63
2022/07/02 01:48:56;;;;;;;1.70;1.60;;;;;;;;;;4986642;28;20026;-63
2022/07/02 01:51:22;;;;;;;1.15;1.15;;;;;;;;;;4986916;28;20412;-63
2022/07/02 01:53:47;;;;;;;1.20;1.20;;;;;;;;;;4987123;28;20039;-63
2022/07/02 01:56:12;;;;;;;1.35;1.25;;;;;;;;;;4987290;28;20374;-63
2022/07/02 01:58:37;;;;;;;2.75;1.10;;;;;;;;;;4986150;28;20026;-63
2022/07/02 02:01:03;;;;;;;2.90;1.23;;;;;;;;;;4988255;28;20124;-63
2022/07/02 02:03:28;;;;;;;1.38;1.38;;;;;;;;;;4987338;28;20669;-63
2022/07/02 02:05:53;;;;;;;1.50;1.50;;;;;;;;;;4986471;28;20029;-63
2022/07/02 02:08:18;;;;;;;1.10;1.10;;;;;;;;;;4986252;28;20062;-63
2022/07/02 02:10:44;;;;;;;1.60;1.50;;;;;;;;;;4990591;28;20030;-63
2022/07/02 02:13:09;;;;;;;1.20;1.10;;;;;;;;;;4990530;28;20026;-63
2022/07/02 02:15:34;;;;;;;1.60;1.50;;;;;;;;;;4991473;28;20657;-64
2022/07/02 02:17:59;;;;;;;2.15;1.60;;;;;;;;;;4990682;28;20488;-63
2022/07/02 02:20:24;;;;;;;1.50;1.50;;;;;;;;;;4990917;28;20141;-66
2022/07/02 02:22:50;;;;;;;1.70;1.60;;;;;;;;;;4991366;28;20030;-62
2022/07/02 02:25:15;;;;;;;1.45;1.45;;;;;;;;;;4988949;28;20443;-63
2022/07/02 02:27:40;;;;;;;1.75;1.65;;;;;;;;;;4991800;28;20022;-65
2022/07/02 02:30:06;;;;;;;1.60;1.50;;;;;;;;;;4990395;28;20041;-63
2022/07/02 02:32:31;;;;;;;1.33;1.33;;;;;;;;;;4989059;28;20036;-64
2022/07/02 02:34:56;;;;;;;1.52;1.38;;;;;;;;;;4990889;28;20034;-63
2022/07/02 02:37:23;;;;;;;1.35;1.35;;;;;;;;;;4991378;28;20026;-63
2022/07/02 02:39:49;;;;;;;2.55;1.60;;;;;;;;;;4989972;28;20034;-63
2022/07/02 02:42:14;;;;;;;1.80;1.67;;;;;;;;;;4990363;28;20028;-63
2022/07/02 02:44:39;;;;;;;1.60;1.60;;;;;;;;;;4989492;28;20089;-63
2022/07/02 02:47:04;;;;;;;4.13;1.50;;;;;;;;;;4990469;28;20573;-63
2022/07/02 02:49:30;;;;;;;1.50;1.50;;;;;;;;;;4993203;28;20033;-63
2022/07/02 02:51:55;;;;;;;1.55;1.48;;;;;;;;;;4990686;28;20502;-64
2022/07/02 02:54:20;;;;;;;1.58;1.50;;;;;;;;;;5005676;28;20062;-62
2022/07/02 02:56:45;;;;;;;1.73;1.63;;;;;;;;;;4991680;28;20026;-64
2022/07/02 02:59:11;;;;;;;1.25;1.25;;;;;;;;;;4989658;28;20041;-64
2022/07/02 03:01:36;;;;;;;1.40;1.40;;;;;;;;;;4988348;28;20659;-63
2022/07/02 03:04:01;;;;;;;1.52;1.42;;;;;;;;;;4989060;28;20079;-64
2022/07/02 03:06:26;;;;;;;1.55;1.50;;;;;;;;;;5005402;28;20034;-64
2022/07/02 03:08:52;;;;;;;1.67;1.55;;;;;;;;;;4981663;28;20688;-64
2022/07/02 03:11:17;;;;;;;1.50;1.40;;;;;;;;;;4987862;28;20081;-64
2022/07/02 03:13:42;;;;;;;1.20;1.20;;;;;;;;;;4990600;28;20037;-64
2022/07/02 03:16:07;;;;;;;1.40;1.30;;;;;;;;;;4990065;28;20030;-64
2022/07/02 03:18:33;;;;;;;1.35;1.27;;;;;;;;;;4989557;28;20409;-64
2022/07/02 03:20:58;;;;;;;1.33;1.33;;;;;;;;;;4989756;28;20089;-63
2022/07/02 03:23:23;;;;;;;2.03;1.83;;;;;;;;;;4989359;28;20029;-62
2022/07/02 03:25:48;;;;;;;1.60;1.50;;;;;;;;;;4990726;28;20030;-63
2022/07/02 03:28:14;;;;;;;1.60;1.60;;;;;;;;;;4990194;28;20029;-64
2022/07/02 03:30:39;;;;;;;1.85;1.75;;;;;;;;;;4990806;28;20045;-64
2022/07/02 03:33:04;;;;;;;1.60;1.50;;;;;;;;;;4990221;28;20045;-63
2022/07/02 03:35:29;;;;;;;3.80;1.63;;;;;;;;;;4989210;28;20073;-63
2022/07/02 03:37:55;;;;;;;2.25;1.67;;;;;;;;;;4989541;28;20033;-63
2022/07/02 03:40:20;;;;;;;2.63;1.90;;;;;;;;;;4989677;28;20066;-63
2022/07/02 03:42:45;;;;;;;2.22;2.13;;;;;;;;;;4989893;28;20563;-64
2022/07/02 03:45:11;;;;;;;1.58;1.48;;;;;;;;;;4990537;28;20597;-64
2022/07/02 03:47:36;;;;;;;1.85;1.60;;;;;;;;;;4988402;28;20105;-64
2022/07/02 03:50:01;;;;;;;2.25;2.08;;;;;;;;;;4990043;28;20034;-63
2022/07/02 03:52:27;;;;;;;2.10;1.60;;;;;;;;;;4990344;28;20293;-64
2022/07/02 03:54:52;;;;;;;1.90;1.80;;;;;;;;;;4990649;28;20527;-64
2022/07/02 03:57:17;;;;;;;1.73;1.63;;;;;;;;;;4990352;28;20495;-64
2022/07/02 03:59:43;;;;;;;1.95;1.65;;;;;;;;;;4989536;28;20046;-64
2022/07/02 04:02:08;;;;;;;6.78;2.22;;;;;;;;;;4989417;28;20085;-63
2022/07/02 04:04:33;;;;;;;1.77;1.67;;;;;;;;;;4988276;28;20038;-64
2022/07/02 04:06:58;;;;;;;1.50;1.40;;;;;;;;;;4988670;28;20022;-64
2022/07/02 04:09:24;;;;;;;1.98;1.50;;;;;;;;;;4988621;28;20563;-64
2022/07/02 04:11:49;;;;;;;1.88;1.77;;;;;;;;;;4988590;28;20446;-63
2022/07/02 04:14:14;;;;;;;1.35;1.35;;;;;;;;;;4988870;28;20033;-64
2022/07/02 04:16:39;;;;;;;1.63;1.52;;;;;;;;;;4987733;28;20443;-64
2022/07/02 04:19:04;;;;;;;1.70;1.60;;;;;;;;;;4989650;28;20042;-64
2022/07/02 04:21:30;;;;;;;1.65;1.65;;;;;;;;;;5003804;28;20040;-63
2022/07/02 04:23:55;;;;;;;1.45;1.45;;;;;;;;;;5005987;28;20030;-63
2022/07/02 04:26:20;;;;;;;1.75;1.65;;;;;;;;;;4988125;28;20032;-64
2022/07/02 04:28:45;;;;;;;2.08;1.98;;;;;;;;;;5003310;28;20522;-64
2022/07/02 04:31:11;;;;;;;1.60;1.60;;;;;;;;;;4987203;28;20080;-64
2022/07/02 04:33:36;;;;;;;1.40;1.40;;;;;;;;;;5004321;28;20439;-64
2022/07/02 04:36:02;;;;;;;1.70;1.60;;;;;;;;;;4988981;28;20025;-64
2022/07/02 04:38:27;;;;;;;1.52;1.52;;;;;;;;;;4990813;28;20033;-64
2022/07/02 04:40:52;;;;;;;1.45;1.42;;;;;;;;;;4989730;28;20154;-64
2022/07/02 04:43:18;;;;;;;1.52;1.52;;;;;;;;;;4991447;28;20034;-64
2022/07/02 04:45:43;;;;;;;1.35;1.35;;;;;;;;;;4989083;28;20053;-63
2022/07/02 04:48:08;;;;;;;1.60;1.60;;;;;;;;;;4987061;28;20188;-63
2022/07/02 04:50:34;;;;;;;1.75;1.65;;;;;;;;;;4988472;28;20033;-64
2022/07/02 04:52:59;;;;;;;1.95;1.80;;;;;;;;;;4987741;28;20161;-63
2022/07/02 04:55:24;;;;;;;1.55;1.40;;;;;;;;;;4988334;28;20428;-63
2022/07/02 04:57:50;;;;;;;1.80;1.70;;;;;;;;;;4988407;28;20037;-63
2022/07/02 05:00:15;;;;;;;2.90;1.80;;;;;;;;;;4988054;28;20038;-63
2022/07/02 05:02:40;;;;;;;1.90;1.80;;;;;;;;;;4986670;28;20443;-63
2022/07/02 05:05:06;;;;;;;1.70;1.60;;;;;;;;;;4987758;28;20026;-63
2022/07/02 05:07:31;;;;;;;2.70;1.77;;;;;;;;;;4985643;28;20041;-63
2022/07/02 05:09:58;;;;;;;2.75;1.65;;;;;;;;;;4986974;28;20417;-64
2022/07/02 05:12:24;;;;;;;2.60;1.73;;;;;;;;;;4987592;28;20532;-63
2022/07/02 05:14:52;;;;;;;1.60;1.60;;;;;;;;;;4986847;28;20053;-63
2022/07/02 05:17:17;;;;;;;1.70;1.60;;;;;;;;;;4986714;28;20030;-63
2022/07/02 05:19:43;;;;;;;1.88;1.77;;;;;;;;;;4986033;28;20036;-63
2022/07/02 05:22:08;;;;;;;1.65;1.40;;;;;;;;;;4987185;28;20054;-64
2022/07/02 05:24:33;;;;;;;1.80;1.70;;;;;;;;;;5002216;28;20034;-63
2022/07/02 05:26:58;;;;;;;1.77;1.67;;;;;;;;;;4986791;28;20278;-64
2022/07/02 05:29:24;;;;;;;2.05;1.70;;;;;;;;;;5001977;28;20034;-62
2022/07/02 05:31:49;;;;;;;1.50;1.40;;;;;;;;;;4987095;28;20022;-62
2022/07/02 05:34:14;;;;;;;1.50;1.50;;;;;;;;;;4987960;28;20396;-63
2022/07/02 05:36:39;;;;;;;1.60;1.33;;;;;;;;;;5002811;28;20374;-64
2022/07/02 05:39:05;;;;;;;1.63;1.52;;;;;;;;;;4989975;28;20075;-62
2022/07/02 05:41:30;;;;;;;1.42;1.40;;;;;;;;;;4988630;28;20040;-62
2022/07/02 05:43:55;;;;;;;1.60;1.50;;;;;;;;;;4989231;28;20065;-62
2022/07/02 05:46:20;;;;;;;1.50;1.50;;;;;;;;;;4992014;28;20459;-62
2022/07/02 05:48:45;;;;;;;2.22;1.20;;;;;;;;;;4993722;28;20456;-62
2022/07/02 05:51:11;;;;;;;1.98;1.58;;;;;;;;;;4992476;28;20529;-65
2022/07/02 05:53:36;;;;;;;1.60;1.50;;;;;;;;;;4991550;28;20190;-63
2022/07/02 05:56:01;;;;;;;1.58;1.48;;;;;;;;;;4991275;28;20030;-63
2022/07/02 05:58:26;;;;;;;1.77;1.67;;;;;;;;;;4990730;28;20038;-63
2022/07/02 06:00:52;;;;;;;1.50;1.50;;;;;;;;;;4990145;28;20344;-64
2022/07/02 06:03:17;;;;;;;4.03;1.48;;;;;;;;;;4991327;28;20026;-64
2022/07/02 06:08:26;;;;;;;1.77;1.67;;;;;;;;;;4990134;28;20057;-62
2022/07/02 06:10:54;;;;;;;2.05;1.35;;;;;;;;;;4989530;28;20034;-63
2022/07/02 06:13:20;;;;;;;1.73;1.60;;;;;;;;;;4990778;28;20120;-63
2022/07/02 06:15:45;;;;;;;1.60;1.55;;;;;;;;;;4993128;28;20121;-64
2022/07/02 06:18:12;;;;;;;1.85;1.67;;;;;;;;;;4989524;28;20428;-65
2022/07/02 06:20:38;;;;;;;1.70;1.70;;;;;;;;;;4990170;28;20031;-63
2022/07/02 06:23:03;;;;;;;1.88;1.80;;;;;;;;;;4990471;28;20057;-64
2022/07/02 06:25:28;;;;;;;1.42;1.35;;;;;;;;;;4989537;28;20362;-65
2022/07/02 06:27:54;;;;;;;1.60;1.50;;;;;;;;;;4991723;28;20014;-64
2022/07/02 06:30:19;;;;;;;1.45;1.45;;;;;;;;;;4990931;28;20439;-64
2022/07/02 06:32:45;;;;;;;2.28;1.85;;;;;;;;;;4989725;28;20061;-63
2022/07/02 06:35:11;;;;;;;1.50;1.40;;;;;;;;;;4987905;28;20184;-63
2022/07/02 06:37:36;;;;;;;1.60;1.60;;;;;;;;;;4992072;28;20408;-64
2022/07/02 06:40:02;;;;;;;1.60;1.50;;;;;;;;;;4991840;28;20027;-63
2022/07/02 06:42:29;;;;;;;1.58;1.58;;;;;;;;;;4988730;28;20472;-64
2022/07/02 06:44:56;;;;;;;1.50;1.50;;;;;;;;;;4987948;28;20026;-64
2022/07/02 06:47:21;;;;;;;2.05;1.90;;;;;;;;;;4988561;28;20442;-64
2022/07/02 06:49:47;;;;;;;1.27;1.27;;;;;;;;;;4990656;28;20092;-64
2022/07/02 06:52:12;;;;;;;1.85;1.60;;;;;;;;;;4991627;28;20080;-64
2022/07/02 06:54:38;;;;;;;1.60;1.50;;;;;;;;;;4986745;28;20529;-63
2022/07/02 06:57:04;;;;;;;1.40;1.40;;;;;;;;;;4988406;28;20057;-64
2022/07/02 06:59:29;;;;;;;1.45;1.35;;;;;;;;;;4986806;28;20034;-64
2022/07/02 07:01:54;;;;;;;1.50;1.50;;;;;;;;;;4988829;28;20108;-63
2022/07/02 07:04:19;;;;;;;1.88;1.70;;;;;;;;;;4989162;28;20401;-63
2022/07/02 07:09:19;;;;;;;1.75;1.65;;;;;;;;;;4987871;28;20342;-64
2022/07/02 07:11:46;;;;;;;1.70;1.70;;;;;;;;;;4989989;28;20457;-63
2022/07/02 07:14:12;;;;;;;2.00;1.90;;;;;;;;;;4988192;28;20181;-64
2022/07/02 07:16:37;;;;;;;1.50;1.50;;;;;;;;;;4986830;28;20022;-64
2022/07/02 07:19:05;;;;;;;1.40;1.30;;;;;;;;;;4991081;28;20184;-62
2022/07/02 07:21:37;;;;;;;1.77;1.67;;;;;;;;;;4989530;28;20030;-62
2022/07/02 07:24:03;;;;;;;3.03;1.90;;;;;;;;;;4987518;28;20531;-63
2022/07/02 07:26:28;;;;;;;1.65;1.55;;;;;;;;;;4986960;28;20044;-62
2022/07/02 07:28:54;;;;;;;1.42;1.42;;;;;;;;;;4986897;28;20030;-63
2022/07/02 07:31:22;;;;;;;1.58;1.58;;;;;;;;;;4988185;28;20491;-63
2022/07/02 07:33:47;;;;;;;1.58;1.48;;;;;;;;;;4988783;28;20040;-63
2022/07/02 07:36:13;;;;;;;1.90;1.80;;;;;;;;;;4989012;28;20423;-63
2022/07/02 07:38:39;;;;;;;1.63;1.63;;;;;;;;;;4987608;28;20030;-64
2022/07/02 07:41:04;;;;;;;1.40;1.40;;;;;;;;;;4988101;28;20485;-63
2022/07/02 07:43:29;;;;;;;1.58;1.50;;;;;;;;;;4986424;28;20030;-63
2022/07/02 07:45:54;;;;;;;1.83;1.73;;;;;;;;;;5003192;28;20100;-62
2022/07/02 07:48:20;;;;;;;1.67;1.58;;;;;;;;;;4990067;28;20022;-63
2022/07/02 07:50:45;;;;;;;1.27;1.27;;;;;;;;;;4988907;28;20052;-63
2022/07/02 07:53:10;;;;;;;1.90;1.80;;;;;;;;;;4987845;28;20045;-63
2022/07/02 07:55:36;;;;;;;1.73;1.63;;;;;;;;;;4987264;28;20390;-63
2022/07/02 07:58:01;;;;;;;1.65;1.65;;;;;;;;;;4987609;28;20033;-63
2022/07/02 08:00:27;;;;;;;2.05;1.83;;;;;;;;;;4988738;28;20515;-63
2022/07/02 08:02:52;;;;;;;1.80;1.70;;;;;;;;;;5003628;28;20042;-63
2022/07/02 08:05:17;;;;;;;1.50;1.40;;;;;;;;;;4987614;28;20484;-64
2022/07/02 08:07:42;;;;;;;2.05;1.95;;;;;;;;;;4987209;28;20030;-64
2022/07/02 08:10:09;;;;;;;1.52;1.48;;;;;;;;;;4987171;28;20110;-64
2022/07/02 08:12:34;;;;;;;2.75;1.50;;;;;;;;;;4986380;28;20088;-64
2022/07/02 08:14:59;;;;;;;1.90;1.80;;;;;;;;;;4988562;28;20460;-64
2022/07/02 08:17:26;;;;;;;1.52;1.52;;;;;;;;;;5002439;28;20532;-64
2022/07/02 08:19:51;;;;;;;1.77;1.67;;;;;;;;;;4988014;28;20472;-63
2022/07/02 08:22:17;;;;;;;2.65;1.60;;;;;;;;;;5003967;28;20034;-64
2022/07/02 08:24:42;;;;;;;1.60;1.52;;;;;;;;;;4987238;28;20675;-64
2022/07/02 08:27:08;;;;;;;1.88;1.77;;;;;;;;;;4985239;28;20124;-64
2022/07/02 08:29:33;;;;;;;4.47;2.03;;;;;;;;;;4987135;28;20497;-65
2022/07/02 08:31:58;;;;;;;1.70;1.58;;;;;;;;;;4986472;28;20543;-63
2022/07/02 08:34:24;;;;;;;1.88;1.77;;;;;;;;;;4988104;28;20038;-64
2022/07/02 08:36:49;;;;;;;3.05;1.85;;;;;;;;;;4988181;28;20158;-64
2022/07/02 08:39:14;;;;;;;1.92;1.80;;;;;;;;;;4985890;28;20115;-63
2022/07/02 08:41:41;;;;;;;1.60;1.55;;;;;;;;;;4987162;28;20062;-63
2022/07/02 08:44:07;;;;;;;1.63;1.42;;;;;;;;;;4988355;28;20027;-64
2022/07/02 08:46:33;;;;;;;1.70;1.70;;;;;;;;;;4989476;28;20090;-64
2022/07/02 08:48:59;;;;;;;1.75;1.65;;;;;;;;;;4988850;28;20041;-64
2022/07/02 08:51:25;;;;;;;3.22;1.60;;;;;;;;;;4988808;28;20440;-64
2022/07/02 08:53:50;;;;;;;2.22;2.03;;;;;;;;;;4986978;28;20583;-63
2022/07/02 08:56:16;;;;;;;1.73;1.63;;;;;;;;;;4987698;28;20049;-63
2022/07/02 08:58:42;;;;;;;1.58;1.58;;;;;;;;;;4987515;28;20547;-63
2022/07/02 09:01:08;;;;;;;2.55;1.80;;;;;;;;;;4986761;28;20034;-63
2022/07/02 09:03:33;;;;;;;2.13;1.70;;;;;;;;;;4988454;28;20305;-63
2022/07/02 09:06:00;;;;;;;1.52;1.52;;;;;;;;;;4986058;28;20092;-63
2022/07/02 09:08:25;;;;;;;2.08;1.98;;;;;;;;;;4987498;28;20148;-63
2022/07/02 09:10:52;;;;;;;1.75;1.70;;;;;;;;;;4987469;28;20034;-64
2022/07/02 09:13:17;;;;;;;1.67;1.58;;;;;;;;;;4988524;28;20072;-64
2022/07/02 09:15:43;;;;;;;1.45;1.40;;;;;;;;;;4987627;28;20617;-63
2022/07/02 09:18:08;;;;;;;1.55;1.45;;;;;;;;;;4987697;28;20456;-64
2022/07/02 09:20:33;;;;;;;1.90;1.80;;;;;;;;;;4986940;28;20034;-63
2022/07/02 09:22:59;;;;;;;1.70;1.70;;;;;;;;;;4986861;28;20029;-64
2022/07/02 09:25:26;;;;;;;2.40;1.85;;;;;;;;;;4986403;28;20583;-64
2022/07/02 09:27:59;;;;;;;1.75;1.65;;;;;;;;;;4986463;28;20034;-64
2022/07/02 09:30:24;;;;;;;3.38;2.05;;;;;;;;;;5003229;28;20556;-64
2022/07/02 09:32:49;;;;;;;1.88;1.77;;;;;;;;;;4988575;28;20030;-64
2022/07/02 09:35:18;;;;;;;4.07;1.95;;;;;;;;;;4987471;28;20042;-64
2022/07/02 09:37:44;;;;;;;1.70;1.60;;;;;;;;;;4987395;28;20060;-64
2022/07/02 09:40:09;;;;;;;2.20;1.98;;;;;;;;;;4987190;28;20094;-64
2022/07/02 09:42:35;;;;;;;1.88;1.77;;;;;;;;;;4986601;28;20506;-62
2022/07/02 09:45:01;;;;;;;1.77;1.67;;;;;;;;;;4987504;28;20813;-64
2022/07/02 09:47:37;;;;;;;1.80;1.70;;;;;;;;;;4989126;28;20049;-62
2022/07/02 09:50:04;;;;;;;20.35;3.85;;;;;;;;;;4985984;28;20041;-63
2022/07/02 09:52:29;;;;;;;2.38;2.05;;;;;;;;;;4988720;28;20134;-63
2022/07/02 09:54:55;;;;;;;3.05;1.70;;;;;;;;;;4987423;28;20077;-63
2022/07/02 09:57:20;;;;;;;3.42;2.05;;;;;;;;;;4986424;28;20034;-63
2022/07/02 09:59:46;;;;;;;1.98;1.80;;;;;;;;;;4988917;28;20041;-64
2022/07/02 10:02:22;;;;;;;1.85;1.67;;;;;;;;;;5001818;28;20362;-63
2022/07/02 10:04:49;;;;;;;1.90;1.60;;;;;;;;;;4983962;28;20026;-64
2022/07/02 10:07:14;;;;;;;1.85;1.75;;;;;;;;;;4977379;28;20576;-64
2022/07/02 10:09:42;;;;;;;1.77;1.77;;;;;;;;;;4983847;28;20066;-63
2022/07/02 10:12:07;;;;;;;2.30;2.20;;;;;;;;;;4985090;28;20430;-63
2022/07/02 10:14:34;;;;;;;1.92;1.80;;;;;;;;;;4986412;28;20057;-64
2022/07/02 10:17:01;;;;;;;1.70;1.60;;;;;;;;;;4984688;28;20018;-64
2022/07/02 10:19:26;;;;;;;2.03;1.92;;;;;;;;;;5001039;28;20469;-63
2022/07/02 10:21:51;;;;;;;2.67;1.92;;;;;;;;;;4987348;28;20043;-63
2022/07/02 10:24:17;;;;;;;2.10;2.00;;;;;;;;;;4987094;28;20132;-64
2022/07/02 10:26:42;;;;;;;1.70;1.60;;;;;;;;;;4984376;28;20281;-63
2022/07/02 10:29:08;;;;;;;1.70;1.60;;;;;;;;;;4987742;28;20052;-63
2022/07/02 10:31:41;;;;;;;2.22;2.08;;;;;;;;;;4990596;28;20015;-63
2022/07/02 10:34:19;;;;;;;2.08;1.83;;;;;;;;;;4989366;28;20029;-63
2022/07/02 10:36:45;;;;;;;1.90;1.63;;;;;;;;;;4989283;28;20255;-64
2022/07/02 10:39:14;;;;;;;1.58;1.50;;;;;;;;;;4990750;28;20034;-63
2022/07/02 10:41:39;;;;;;;1.65;1.60;;;;;;;;;;4990383;28;20080;-63
2022/07/02 10:44:05;;;;;;;2.63;1.63;;;;;;;;;;4991676;28;20033;-63
2022/07/02 10:46:33;;;;;;;2.05;1.95;;;;;;;;;;4989574;28;20037;-63
2022/07/02 10:48:59;;;;;;;1.88;1.77;;;;;;;;;;4989183;28;20027;-63
2022/07/02 10:51:25;;;;;;;2.88;1.80;;;;;;;;;;4990474;28;20472;-63
2022/07/02 10:53:51;;;;;;;1.95;1.85;;;;;;;;;;4990381;28;20096;-63
2022/07/02 10:56:17;;;;;;;1.95;1.85;;;;;;;;;;4991236;28;20084;-64
2022/07/02 10:58:42;;;;;;;2.33;2.17;;;;;;;;;;4989034;28;20034;-64
2022/07/02 11:01:10;;;;;;;2.00;1.90;;;;;;;;;;4990218;28;20022;-64
2022/07/02 11:03:35;;;;;;;2.03;1.92;;;;;;;;;;4989795;28;20100;-64
2022/07/02 11:06:01;;;;;;;1.75;1.65;;;;;;;;;;4989913;28;20433;-64
2022/07/02 11:08:44;;;;;;;2.08;1.85;;;;;;;;;;4989032;28;20632;-64
2022/07/02 11:11:10;;;;;;;2.17;2.08;;;;;;;;;;4987380;28;20022;-64
2022/07/02 11:13:44;;;;;;;2.17;2.08;;;;;;;;;;4988455;28;20116;-65
2022/07/02 11:16:21;;;;;;;2.05;1.70;;;;;;;;;;4991090;28;20022;-64
2022/07/02 11:18:47;;;;;;;2.78;2.10;;;;;;;;;;4990992;28;20045;-64
2022/07/02 11:21:13;;;;;;;2.30;2.17;;;;;;;;;;4989780;28;20031;-65
2022/07/02 11:23:39;;;;;;;2.47;2.38;;;;;;;;;;5004441;28;20069;-64
2022/07/02 11:26:04;;;;;;;2.13;2.00;;;;;;;;;;4990178;28;20030;-64
2022/07/02 11:28:29;;;;;;;2.13;2.03;;;;;;;;;;4989974;28;20026;-65
2022/07/02 11:30:58;;;;;;;3.08;2.78;;;;;;;;;;4988754;28;20524;-64
2022/07/02 11:33:23;;;;;;;1.90;1.80;;;;;;;;;;4987097;28;20113;-64
2022/07/02 11:35:51;;;;;;;2.33;2.22;;;;;;;;;;4988690;28;20099;-64
2022/07/02 11:38:17;;;;;;;2.70;2.60;;;;;;;;;;4989299;28;20029;-64
2022/07/02 11:40:42;;;;;;;2.50;2.30;;;;;;;;;;4988099;28;20034;-64
2022/07/02 11:43:14;;;;;;;2.13;1.70;;;;;;;;;;4989141;28;20061;-64
2022/07/02 11:45:47;;;;;;;1.60;1.60;;;;;;;;;;4989026;28;20033;-64
2022/07/02 11:48:19;;;;;;;2.42;2.22;;;;;;;;;;4989013;28;20145;-64
2022/07/02 11:50:53;;;;;;;2.65;2.45;;;;;;;;;;4986836;28;20515;-63
2022/07/02 11:53:20;;;;;;;2.13;2.03;;;;;;;;;;4987395;28;20073;-64
2022/07/02 11:55:45;;;;;;;2.00;1.90;;;;;;;;;;4986936;28;20053;-64
2022/07/02 11:58:10;;;;;;;2.17;1.98;;;;;;;;;;4987016;28;20035;-63
2022/07/02 12:00:36;;;;;;;1.90;1.80;;;;;;;;;;4987592;28;20034;-64
2022/07/02 12:03:11;;;;;;;3.17;2.85;;;;;;;;;;4988846;28;20049;-65
2022/07/02 12:05:37;;;;;;;2.10;2.10;;;;;;;;;;4985911;28;20030;-68
2022/07/02 12:08:04;;;;;;;1.88;1.77;;;;;;;;;;4988499;28;20022;-65
2022/07/02 12:10:37;;;;;;;1.73;1.70;;;;;;;;;;4991465;28;20128;-64
2022/07/02 12:13:09;;;;;;;2.95;2.17;;;;;;;;;;4988480;28;20475;-65
2022/07/02 12:15:43;;;;;;;2.13;1.88;;;;;;;;;;4986973;28;20023;-64
2022/07/02 12:18:08;;;;;;;;;;;;;;;;;;4989054;28;20030;-65
2022/07/02 12:20:34;;;;;;;2.15;1.98;;;;;;;;;;4987726;28;19921;-66
2022/07/02 12:22:59;;;;;;;2.63;2.42;;;;;;;;;;4987243;28;20034;-64
2022/07/02 12:25:28;;;;;;;2.60;2.50;;;;;;;;;;4988091;28;20042;-65
2022/07/02 12:27:53;;;;;;;2.42;2.33;;;;;;;;;;4989078;28;20413;-64
2022/07/02 12:30:19;;;;;;;2.10;2.00;;;;;;;;;;4988301;28;20034;-64
2022/07/02 12:32:50;;;;;;;2.83;2.55;;;;;;;;;;4988662;28;20113;-65
2022/07/02 12:35:16;;;;;;;2.55;2.35;;;;;;;;;;4986744;28;20495;-65
2022/07/02 12:37:43;;;;;;;2.03;1.92;;;;;;;;;;4989570;28;20487;-64
2022/07/02 12:40:12;;;;;;;2.17;2.00;;;;;;;;;;4987042;28;20034;-64
2022/07/02 12:42:48;;;;;;;2.08;1.98;;;;;;;;;;4988473;28;20088;-64
2022/07/02 12:45:22;;;;;;;2.13;2.08;;;;;;;;;;4987866;28;20161;-64
2022/07/02 12:47:55;;;;;;;2.63;1.80;;;;;;;;;;4987496;28;20035;-64
2022/07/02 12:50:21;;;;;;;2.10;2.00;;;;;;;;;;4988034;28;20037;-65
2022/07/02 12:52:47;;;;;;;1.80;1.80;;;;;;;;;;4987721;28;20022;-64
2022/07/02 12:55:20;;;;;;;2.97;2.72;;;;;;;;;;4988444;28;20030;-64
2022/07/02 12:57:45;;;;;;;2.20;2.10;;;;;;;;;;4990113;28;20031;-65
2022/07/02 13:00:10;;;;;;;2.90;1.75;;;;;;;;;;4989172;28;20108;-64
2022/07/02 13:02:35;;;;;;;2.17;2.13;;;;;;;;;;4989057;28;20034;-64
2022/07/02 13:05:01;;;;;;;2.08;1.98;;;;;;;;;;4989005;28;20037;-64
2022/07/02 13:07:26;;;;;;;2.88;1.90;;;;;;;;;;4987597;28;20151;-64
2022/07/02 13:09:51;;;;;;;1.77;1.77;;;;;;;;;;4986851;28;20146;-64
2022/07/02 13:12:17;;;;;;;1.92;1.83;;;;;;;;;;4988470;28;20113;-65
2022/07/02 13:14:43;;;;;;;1.88;1.77;;;;;;;;;;4988580;28;20468;-64
2022/07/02 13:17:08;;;;;;;2.35;2.15;;;;;;;;;;4988281;28;20068;-64
2022/07/02 13:19:35;;;;;;;2.33;2.22;;;;;;;;;;4987795;28;20471;-64
2022/07/02 13:22:00;;;;;;;2.20;2.10;;;;;;;;;;4988358;28;20125;-64
2022/07/02 13:24:25;;;;;;;2.25;2.15;;;;;;;;;;4988300;28;20030;-64
2022/07/02 13:26:51;;;;;;;2.17;2.00;;;;;;;;;;4986822;28;20037;-65
2022/07/02 13:29:16;;;;;;;2.80;2.60;;;;;;;;;;4987392;28;20104;-64
2022/07/02 13:31:41;;;;;;;1.98;1.92;;;;;;;;;;4987435;28;20392;-65
2022/07/02 13:34:06;;;;;;;2.05;2.03;;;;;;;;;;4987223;28;20025;-64
2022/07/02 13:36:32;;;;;;;2.10;2.10;;;;;;;;;;4989289;28;20504;-64
2022/07/02 13:38:57;;;;;;;2.38;2.28;;;;;;;;;;4985008;28;20033;-63
2022/07/02 13:41:22;;;;;;;2.75;2.50;;;;;;;;;;4987723;28;20092;-63
2022/07/02 13:43:47;;;;;;;3.17;2.97;;;;;;;;;;4987182;28;20026;-63
2022/07/02 13:46:13;;;;;;;6.05;5.75;;;;;;;;;;5000872;28;20504;-63
2022/07/02 13:48:38;;;;;;;5.65;5.30;;;;;;;;;;4986635;28;20061;-63
2022/07/02 13:51:03;;;;;;;2.58;2.47;;;;;;;;;;4986928;28;20034;-63
2022/07/02 13:53:29;;;;;;;2.63;2.53;;;;;;;;;;4987822;28;20103;-64
2022/07/02 13:55:54;;;;;;;3.38;2.88;;;;;;;;;;4971179;28;20045;-63
2022/07/02 13:58:19;;;;;;;2.28;2.20;;;;;;;;;;4985882;28;20027;-63
2022/07/02 14:00:45;;;;;;;2.38;2.28;;;;;;;;;;4986402;28;20033;-63
2022/07/02 14:03:10;;;;;;;2.47;2.38;;;;;;;;;;4986319;28;20125;-62
2022/07/02 14:05:35;;;;;;;2.70;2.50;;;;;;;;;;4992225;28;20065;-62
2022/07/02 14:08:01;;;;;;;2.33;2.20;;;;;;;;;;4991599;28;20034;-62
2022/07/02 14:10:27;;;;;;;2.78;2.53;;;;;;;;;;4972190;28;20488;-63
2022/07/02 14:12:52;;;;;;;2.53;2.42;;;;;;;;;;4970926;28;20023;-63
2022/07/02 14:15:18;;;;;;;3.10;2.15;;;;;;;;;;4952205;28;20030;-64
2022/07/02 14:17:43;;;;;;;3.60;3.30;;;;;;;;;;4969943;28;20477;-64
2022/07/02 14:20:09;;;;;;;3.55;3.25;;;;;;;;;;4970413;28;20146;-63
2022/07/02 14:22:34;;;;;;;3.38;3.10;;;;;;;;;;4953394;28;20069;-63
2022/07/02 14:25:00;;;;;;;2.75;2.65;;;;;;;;;;4971275;28;20034;-65
2022/07/02 14:27:25;;;;;;;2.72;2.63;;;;;;;;;;4971038;28;20114;-64
2022/07/02 14:29:50;;;;;;;2.83;2.72;;;;;;;;;;4970424;28;20046;-63
2022/07/02 14:32:16;;;;;;;2.38;2.28;;;;;;;;;;4971716;28;20022;-64
2022/07/02 14:34:41;;;;;;;2.95;2.63;;;;;;;;;;4971567;28;20057;-63
2022/07/02 14:37:06;;;;;;;2.55;2.38;;;;;;;;;;4972260;28;20428;-64
2022/07/02 14:39:32;;;;;;;7.00;4.90;;;;;;;;;;4951236;28;20397;-64
2022/07/02 14:41:58;;;;;;;4.30;3.90;;;;;;;;;;4968686;28;20067;-64
2022/07/02 14:44:23;;;;;;;4.28;3.97;;;;;;;;;;4971065;28;20034;-63